Time;durP1;ratioP1;P1;durP2;ratioP2;P2;SDS_P1;SDS_P2;PMS_P1;PMS_P2;Temp;Humidity;BMP_temperature;BMP_pressure;BME280_temperature;BME280_humidity;BME280_pressure;Samples;Min_cycle;Max_cycle;Signal;HPM_P1;HPM_P2
2023/07/23 00:00:58;;;;;;;15.30;8.60;;;16.30;99.90;;;;;;5132463;27;20474;-74
2023/07/23 00:03:24;;;;;;;14.45;8.60;;;16.30;99.90;;;;;;5132473;27;20026;-74
2023/07/23 00:05:50;;;;;;;16.95;8.05;;;16.30;99.90;;;;;;5132783;27;20370;-75
2023/07/23 00:08:16;;;;;;;17.27;8.70;;;16.30;99.90;;;;;;5132787;27;21216;-74
2023/07/23 00:10:42;;;;;;;16.55;8.43;;;16.30;99.90;;;;;;5133032;27;20041;-75
2023/07/23 00:13:08;;;;;;;14.93;8.07;;;16.30;99.90;;;;;;5124659;27;20034;-74
2023/07/23 00:15:33;;;;;;;17.40;8.55;;;16.30;99.90;;;;;;5133355;27;20019;-74
2023/07/23 00:18:00;;;;;;;15.20;7.65;;;16.30;99.90;;;;;;5130072;27;20035;-75
2023/07/23 00:20:26;;;;;;;16.45;8.38;;;16.30;99.90;;;;;;5119282;27;20061;-75
2023/07/23 00:22:51;;;;;;;15.60;8.23;;;16.40;99.90;;;;;;5132348;28;20410;-75
2023/07/23 00:25:17;;;;;;;14.40;8.07;;;16.30;99.90;;;;;;5132362;28;20041;-75
2023/07/23 00:27:43;;;;;;;19.50;8.65;;;16.30;99.90;;;;;;5121358;28;20031;-75
2023/07/23 00:30:09;;;;;;;17.58;7.85;;;16.40;99.90;;;;;;5132281;28;20071;-76
2023/07/23 00:32:35;;;;;;;15.13;7.93;;;16.40;99.90;;;;;;5132287;28;20023;-75
2023/07/23 00:35:00;;;;;;;14.95;8.35;;;16.40;99.90;;;;;;5112310;28;20124;-75
2023/07/23 00:37:29;;;;;;;13.25;8.27;;;16.40;99.90;;;;;;5131616;28;20030;-75
2023/07/23 00:39:55;;;;;;;15.63;7.72;;;16.40;99.90;;;;;;5131908;28;20043;-75
2023/07/23 00:42:20;;;;;;;17.45;8.57;;;16.40;99.90;;;;;;5131494;28;20529;-75
2023/07/23 00:44:46;;;;;;;18.30;8.98;;;16.40;99.90;;;;;;5131897;28;20364;-75
2023/07/23 00:47:12;;;;;;;17.55;9.40;;;16.40;99.90;;;;;;5130113;28;20476;-75
2023/07/23 00:49:38;;;;;;;17.15;9.77;;;16.40;99.90;;;;;;5123666;28;20058;-75
2023/07/23 00:52:06;;;;;;;23.23;10.40;;;16.40;99.90;;;;;;5129892;28;20113;-75
2023/07/23 00:54:32;;;;;;;19.08;10.10;;;16.40;99.90;;;;;;5119796;28;20047;-75
2023/07/23 00:57:00;;;;;;;20.52;10.40;;;16.40;99.90;;;;;;5130022;28;20540;-75
2023/07/23 00:59:29;;;;;;;20.20;11.05;;;16.40;99.90;;;;;;5128798;28;20027;-76
2023/07/23 01:01:55;;;;;;;23.55;11.00;;;16.40;99.90;;;;;;5132029;28;20023;-76
2023/07/23 01:04:21;;;;;;;21.95;11.60;;;16.40;99.90;;;;;;5131998;28;20018;-75
2023/07/23 01:06:48;;;;;;;21.65;11.27;;;16.40;99.90;;;;;;5132215;28;20102;-76
2023/07/23 01:09:15;;;;;;;23.92;11.20;;;16.40;99.90;;;;;;5110580;28;20085;-76
2023/07/23 01:11:41;;;;;;;20.98;10.73;;;16.40;99.90;;;;;;5120112;28;20080;-75
2023/07/23 01:14:06;;;;;;;21.13;11.20;;;16.40;99.90;;;;;;5131047;28;20042;-76
2023/07/23 01:16:33;;;;;;;19.95;11.32;;;16.40;99.90;;;;;;5131397;28;20472;-75
2023/07/23 01:18:59;;;;;;;19.15;11.35;;;16.40;99.90;;;;;;5134374;27;20035;-75
2023/07/23 01:21:27;;;;;;;19.08;10.75;;;16.40;99.90;;;;;;5134832;27;20016;-77
2023/07/23 01:23:53;;;;;;;20.48;11.35;;;16.40;99.90;;;;;;5129314;27;20015;-75
2023/07/23 01:26:20;;;;;;;21.00;10.57;;;16.40;99.90;;;;;;5128306;27;20026;-75
2023/07/23 01:28:46;;;;;;;17.63;10.50;;;16.40;99.90;;;;;;5135661;27;20062;-75
2023/07/23 01:31:15;;;;;;;20.42;10.27;;;16.40;99.90;;;;;;5136091;27;20498;-75
2023/07/23 01:33:41;;;;;;;21.10;10.40;;;16.40;99.90;;;;;;5113484;28;20024;-75
2023/07/23 01:36:07;;;;;;;21.55;10.80;;;16.40;99.90;;;;;;5117632;27;20042;-75
2023/07/23 01:38:33;;;;;;;19.80;10.40;;;16.40;99.90;;;;;;5134796;27;20437;-75
2023/07/23 01:41:00;;;;;;;21.08;10.15;;;16.40;99.90;;;;;;5135811;27;20079;-75
2023/07/23 01:43:26;;;;;;;20.30;10.27;;;16.40;99.90;;;;;;5135126;27;20145;-74
2023/07/23 01:45:52;;;;;;;20.38;10.18;;;16.50;99.90;;;;;;5135304;27;20027;-75
2023/07/23 01:48:19;;;;;;;20.20;10.27;;;16.50;99.90;;;;;;5136370;27;20518;-75
2023/07/23 01:50:44;;;;;;;22.58;10.80;;;16.50;99.90;;;;;;5135765;27;20027;-75
2023/07/23 01:53:10;;;;;;;18.10;10.10;;;16.50;99.90;;;;;;5135145;27;20039;-75
2023/07/23 01:55:36;;;;;;;19.23;9.82;;;16.50;99.90;;;;;;5134132;27;20483;-75
2023/07/23 01:58:01;;;;;;;21.35;10.50;;;16.50;99.90;;;;;;5134770;27;20027;-76
2023/07/23 02:00:27;;;;;;;20.55;10.57;;;16.50;99.90;;;;;;5121117;27;20019;-75
2023/07/23 02:02:53;;;;;;;16.83;10.32;;;16.50;99.90;;;;;;5134784;27;20474;-75
2023/07/23 02:05:19;;;;;;;15.10;10.13;;;16.50;99.90;;;;;;5115506;27;20027;-75
2023/07/23 02:07:45;;;;;;;18.38;9.90;;;16.50;99.90;;;;;;5134308;27;20027;-76
2023/07/23 02:10:13;;;;;;;18.35;9.70;;;16.50;99.90;;;;;;5134203;27;20023;-76
2023/07/23 02:12:39;;;;;;;19.77;9.60;;;16.50;99.90;;;;;;5134046;27;20023;-76
2023/07/23 02:15:05;;;;;;;15.50;9.55;;;16.50;99.90;;;;;;5133859;27;20013;-76
2023/07/23 02:17:31;;;;;;;18.50;9.85;;;16.50;99.90;;;;;;5134433;27;20023;-76
2023/07/23 02:19:57;;;;;;;19.55;10.05;;;16.50;99.90;;;;;;5115137;27;20011;-75
2023/07/23 02:22:22;;;;;;;16.42;9.45;;;16.50;99.90;;;;;;5134147;27;20023;-75
2023/07/23 02:24:48;;;;;;;16.30;9.13;;;16.50;99.90;;;;;;5133599;27;20268;-75
2023/07/23 02:27:14;;;;;;;17.38;9.80;;;16.60;99.90;;;;;;5133741;27;20383;-75
2023/07/23 02:29:40;;;;;;;16.42;9.48;;;16.50;99.90;;;;;;5132566;27;20022;-76
2023/07/23 02:32:06;;;;;;;17.88;9.90;;;16.60;99.90;;;;;;5133790;27;20016;-75
2023/07/23 02:34:32;;;;;;;20.83;9.73;;;16.60;99.90;;;;;;5120054;27;20015;-76
2023/07/23 02:36:58;;;;;;;18.10;9.90;;;16.60;99.90;;;;;;5133897;27;20022;-76
2023/07/23 02:39:24;;;;;;;16.33;9.43;;;16.60;99.90;;;;;;5133087;27;20023;-75
2023/07/23 02:41:49;;;;;;;19.77;10.20;;;16.60;99.90;;;;;;5134188;27;20514;-75
2023/07/23 02:44:15;;;;;;;18.00;9.68;;;16.60;99.90;;;;;;5133821;27;20015;-75
2023/07/23 02:46:41;;;;;;;22.67;9.77;;;16.60;99.90;;;;;;5133219;27;20091;-75
2023/07/23 02:49:06;;;;;;;19.98;9.95;;;16.60;99.90;;;;;;5133377;27;20479;-75
2023/07/23 02:51:32;;;;;;;18.52;8.73;;;16.60;99.90;;;;;;5133311;27;20104;-75
2023/07/23 02:53:57;;;;;;;16.65;8.88;;;16.60;99.90;;;;;;5132961;27;20019;-75
2023/07/23 02:56:23;;;;;;;17.58;8.77;;;16.60;99.90;;;;;;5132942;27;20019;-75
2023/07/23 02:58:49;;;;;;;20.00;8.88;;;16.60;99.90;;;;;;5130307;27;20387;-75
2023/07/23 03:01:15;;;;;;;15.52;9.15;;;16.60;99.90;;;;;;5113401;27;20012;-75
2023/07/23 03:03:40;;;;;;;16.05;8.57;;;16.60;99.90;;;;;;5132767;27;20019;-74
2023/07/23 03:06:07;;;;;;;20.27;9.05;;;16.60;99.90;;;;;;5132116;27;20380;-75
2023/07/23 03:08:32;;;;;;;15.75;9.10;;;16.60;99.90;;;;;;5132754;27;20034;-75
2023/07/23 03:10:58;;;;;;;14.35;8.25;;;16.60;99.90;;;;;;5133044;27;20011;-75
2023/07/23 03:13:24;;;;;;;20.17;8.57;;;16.60;99.90;;;;;;5133171;27;20015;-75
2023/07/23 03:15:49;;;;;;;16.27;8.68;;;16.60;99.90;;;;;;5133165;27;20019;-75
2023/07/23 03:18:15;;;;;;;17.50;8.57;;;16.60;99.90;;;;;;5114628;27;20023;-75
2023/07/23 03:20:41;;;;;;;19.10;8.38;;;16.60;99.90;;;;;;5133204;27;20051;-75
2023/07/23 03:23:06;;;;;;;17.15;8.35;;;16.60;99.90;;;;;;5132954;27;20552;-75
2023/07/23 03:25:32;;;;;;;15.80;8.00;;;16.60;99.90;;;;;;5133502;27;20423;-75
2023/07/23 03:27:59;;;;;;;18.42;8.95;;;16.60;99.90;;;;;;5132994;27;20399;-75
2023/07/23 03:30:26;;;;;;;13.07;8.07;;;16.60;99.90;;;;;;5133030;27;20022;-76
2023/07/23 03:32:52;;;;;;;15.35;8.38;;;16.60;99.90;;;;;;5127328;27;20019;-75
2023/07/23 03:35:19;;;;;;;14.18;8.40;;;16.60;99.90;;;;;;5132889;27;20433;-75
2023/07/23 03:37:44;;;;;;;19.27;8.52;;;16.50;99.90;;;;;;5132521;27;20050;-75
2023/07/23 03:40:10;;;;;;;14.25;7.95;;;16.50;99.90;;;;;;5111910;27;20023;-74
2023/07/23 03:42:36;;;;;;;17.20;8.55;;;16.60;99.90;;;;;;5131928;27;20015;-75
2023/07/23 03:45:01;;;;;;;18.83;8.55;;;16.60;99.90;;;;;;5132241;27;20436;-75
2023/07/23 03:47:27;;;;;;;11.27;7.78;;;16.60;99.90;;;;;;5131984;27;20050;-75
2023/07/23 03:49:53;;;;;;;13.90;7.78;;;16.60;99.90;;;;;;5132244;27;20493;-75
2023/07/23 03:52:19;;;;;;;14.57;8.05;;;16.60;99.90;;;;;;5129653;27;20051;-75
2023/07/23 03:54:44;;;;;;;19.40;8.18;;;16.60;99.90;;;;;;5129273;27;20043;-75
2023/07/23 03:57:10;;;;;;;17.27;8.05;;;16.60;99.90;;;;;;5131035;27;20015;-75
2023/07/23 03:59:43;;;;;;;19.75;8.27;;;16.60;99.90;;;;;;5113265;27;20373;-76
2023/07/23 04:02:09;;;;;;;14.52;8.27;;;16.60;99.90;;;;;;5128654;27;20387;-75
2023/07/23 04:04:36;;;;;;;12.10;7.53;;;16.60;99.90;;;;;;5123494;27;20090;-75
2023/07/23 04:07:02;;;;;;;14.40;7.47;;;16.60;99.90;;;;;;5120549;27;20034;-75
2023/07/23 04:09:28;;;;;;;15.60;7.70;;;16.60;99.90;;;;;;5131505;27;20042;-75
2023/07/23 04:11:54;;;;;;;18.25;7.68;;;16.60;99.90;;;;;;5131325;27;20472;-75
2023/07/23 04:14:20;;;;;;;16.13;7.80;;;16.60;99.90;;;;;;5131415;27;20034;-75
2023/07/23 04:16:46;;;;;;;14.82;7.78;;;16.70;99.90;;;;;;5131078;27;20015;-75
2023/07/23 04:19:12;;;;;;;19.88;8.23;;;16.70;99.90;;;;;;5131219;27;20030;-76
2023/07/23 04:21:39;;;;;;;16.42;7.68;;;16.70;99.90;;;;;;5130369;27;20663;-75
2023/07/23 04:24:05;;;;;;;18.33;8.43;;;16.70;99.90;;;;;;5131355;27;20023;-75
2023/07/23 04:26:31;;;;;;;20.65;9.00;;;16.80;99.90;;;;;;5101343;28;20406;-76
2023/07/23 04:28:57;;;;;;;17.73;8.88;;;16.80;99.90;;;;;;5130954;28;20024;-76
2023/07/23 04:31:23;;;;;;;18.15;9.48;;;16.80;99.90;;;;;;5108721;28;20024;-75
2023/07/23 04:33:49;;;;;;;18.27;9.65;;;16.80;99.90;;;;;;5122907;28;20027;-76
2023/07/23 04:36:15;;;;;;;20.00;9.23;;;16.80;99.90;;;;;;5129238;28;20460;-80
2023/07/23 04:38:42;;;;;;;18.02;8.95;;;16.80;99.90;;;;;;5103249;28;20151;-75
2023/07/23 04:41:08;;;;;;;19.50;9.18;;;16.80;99.90;;;;;;5125896;28;20019;-75
2023/07/23 04:43:38;;;;;;;21.85;10.18;;;16.80;99.90;;;;;;5127083;28;20098;-75
2023/07/23 04:46:04;;;;;;;22.15;10.27;;;16.80;99.90;;;;;;5112851;28;20031;-74
2023/07/23 04:48:34;;;;;;;19.10;9.13;;;16.80;99.90;;;;;;5130927;28;20035;-75
2023/07/23 04:51:02;;;;;;;21.55;10.77;;;16.80;99.90;;;;;;5131011;28;20019;-75
2023/07/23 04:53:27;;;;;;;20.50;9.77;;;16.80;99.90;;;;;;5115051;27;20027;-75
2023/07/23 04:55:54;;;;;;;19.75;9.20;;;16.80;99.90;;;;;;5122310;27;20030;-75
2023/07/23 04:58:21;;;;;;;19.35;10.15;;;16.80;99.90;;;;;;5134823;27;20033;-75
2023/07/23 05:00:47;;;;;;;18.63;8.63;;;16.80;99.90;;;;;;5134711;27;20050;-76
2023/07/23 05:03:13;;;;;;;20.58;8.50;;;16.80;99.90;;;;;;5135038;27;20702;-75
2023/07/23 05:05:46;;;;;;;19.27;8.38;;;16.80;99.90;;;;;;5134740;27;20106;-75
2023/07/23 05:08:11;;;;;;;18.05;8.57;;;16.80;99.90;;;;;;5134467;27;20020;-75
2023/07/23 05:10:38;;;;;;;18.23;8.90;;;16.70;99.90;;;;;;5103910;27;20027;-76
2023/07/23 05:13:03;;;;;;;24.27;8.45;;;16.70;99.90;;;;;;5123902;27;20027;-75
2023/07/23 05:15:29;;;;;;;14.85;8.27;;;16.70;99.90;;;;;;5133978;27;20019;-75
2023/07/23 05:17:55;;;;;;;19.30;8.85;;;16.70;99.90;;;;;;5134801;27;20015;-75
2023/07/23 05:20:21;;;;;;;19.85;9.02;;;16.70;99.90;;;;;;5125780;27;20023;-75
2023/07/23 05:22:46;;;;;;;17.80;8.30;;;16.60;99.90;;;;;;5134867;27;20018;-76
2023/07/23 05:25:12;;;;;;;20.40;9.50;;;16.60;99.90;;;;;;5128330;27;20019;-75
2023/07/23 05:27:38;;;;;;;16.10;8.93;;;16.50;99.90;;;;;;5115990;27;20506;-76
2023/07/23 05:30:04;;;;;;;17.30;9.65;;;16.50;99.90;;;;;;5135238;27;20507;-76
2023/07/23 05:32:31;;;;;;;21.67;9.10;;;16.40;99.90;;;;;;5133829;27;20023;-76
2023/07/23 05:34:57;;;;;;;19.52;9.90;;;16.40;99.90;;;;;;5106976;27;20011;-75
2023/07/23 05:37:24;;;;;;;20.58;9.57;;;16.30;99.90;;;;;;5125082;27;20019;-76
2023/07/23 05:39:52;;;;;;;20.63;10.18;;;16.30;99.90;;;;;;5134458;27;20018;-76
2023/07/23 05:42:17;;;;;;;20.67;10.00;;;16.20;99.90;;;;;;5133732;27;20026;-76
2023/07/23 05:44:43;;;;;;;19.83;9.88;;;16.10;99.90;;;;;;5116562;27;20019;-76
2023/07/23 05:47:09;;;;;;;19.55;9.88;;;16.10;99.90;;;;;;5134089;27;20394;-76
2023/07/23 05:49:34;;;;;;;20.20;9.88;;;16.10;99.90;;;;;;5134652;27;20081;-77
2023/07/23 05:52:00;;;;;;;18.35;9.75;;;16.10;99.90;;;;;;5131831;27;20053;-76
2023/07/23 05:54:26;;;;;;;18.60;8.60;;;16.10;99.90;;;;;;5134825;27;20027;-77
2023/07/23 05:56:52;;;;;;;17.35;9.00;;;16.10;99.90;;;;;;5134569;27;20030;-77
2023/07/23 05:59:18;;;;;;;16.98;9.20;;;16.10;99.90;;;;;;5134163;27;20087;-77
2023/07/23 06:01:44;;;;;;;17.35;9.45;;;16.10;99.90;;;;;;5134589;27;20028;-76
2023/07/23 06:04:09;;;;;;;17.55;9.20;;;16.10;99.90;;;;;;5129636;27;20426;-77
2023/07/23 06:06:35;;;;;;;17.92;9.65;;;16.20;99.90;;;;;;5125909;27;20028;-77
2023/07/23 06:09:02;;;;;;;17.83;8.73;;;16.20;99.90;;;;;;5133820;27;20027;-77
2023/07/23 06:11:28;;;;;;;17.10;8.48;;;16.20;99.90;;;;;;5133702;27;20030;-77
2023/07/23 06:13:54;;;;;;;18.27;8.98;;;16.20;99.90;;;;;;5133886;27;20023;-76
2023/07/23 06:16:19;;;;;;;17.65;8.73;;;16.20;99.90;;;;;;5133931;27;20015;-76
2023/07/23 06:18:45;;;;;;;18.88;8.98;;;16.20;99.90;;;;;;5125039;27;20388;-76
2023/07/23 06:21:10;;;;;;;17.70;9.02;;;16.20;99.90;;;;;;5133246;27;20019;-76
2023/07/23 06:23:36;;;;;;;18.13;8.93;;;16.20;99.90;;;;;;5128455;27;20031;-75
2023/07/23 06:26:02;;;;;;;16.15;9.27;;;16.20;99.90;;;;;;5133617;27;20387;-75
2023/07/23 06:28:27;;;;;;;16.42;8.63;;;16.30;99.90;;;;;;5132945;27;20491;-75
2023/07/23 06:30:54;;;;;;;18.88;8.77;;;16.30;99.90;;;;;;5133222;27;20111;-75
2023/07/23 06:33:20;;;;;;;15.70;9.00;;;16.30;99.90;;;;;;5133038;27;20008;-75
2023/07/23 06:35:47;;;;;;;18.15;8.52;;;16.30;99.90;;;;;;5133173;27;20579;-75
2023/07/23 06:38:13;;;;;;;21.58;9.75;;;16.30;99.90;;;;;;5132434;27;20049;-76
2023/07/23 06:40:46;;;;;;;17.60;9.13;;;16.30;99.90;;;;;;5132733;27;20066;-75
2023/07/23 06:43:16;;;;;;;20.05;9.20;;;16.30;99.90;;;;;;5133819;27;20022;-75
2023/07/23 06:45:46;;;;;;;17.60;9.32;;;16.30;99.90;;;;;;5127332;27;20054;-75
2023/07/23 06:48:13;;;;;;;16.60;8.63;;;16.30;99.90;;;;;;5122299;27;20059;-75
2023/07/23 06:50:39;;;;;;;15.43;8.55;;;16.30;99.90;;;;;;5110388;27;20110;-75
2023/07/23 06:53:05;;;;;;;17.20;8.60;;;16.40;99.90;;;;;;5132673;27;20134;-75
2023/07/23 06:55:31;;;;;;;15.70;7.97;;;16.40;99.90;;;;;;5133138;27;20497;-75
2023/07/23 06:57:57;;;;;;;16.33;8.55;;;16.40;99.90;;;;;;5114682;27;20064;-74
2023/07/23 07:00:23;;;;;;;15.32;8.65;;;16.50;99.90;;;;;;5132149;27;20405;-74
2023/07/23 07:02:48;;;;;;;16.58;8.18;;;16.50;99.90;;;;;;5134135;27;20023;-74
2023/07/23 07:05:14;;;;;;;17.75;8.10;;;16.60;99.90;;;;;;5132959;27;20036;-74
2023/07/23 07:07:40;;;;;;;17.45;8.00;;;16.60;99.90;;;;;;5130556;27;20480;-74
2023/07/23 07:10:06;;;;;;;16.15;8.50;;;16.70;99.90;;;;;;5130612;27;20597;-74
2023/07/23 07:12:32;;;;;;;13.68;7.65;;;16.70;99.90;;;;;;5131284;27;20030;-74
2023/07/23 07:14:57;;;;;;;15.63;7.63;;;16.70;99.90;;;;;;5130313;27;20012;-75
2023/07/23 07:17:23;;;;;;;13.90;7.63;;;16.70;99.90;;;;;;5130548;27;20023;-75
2023/07/23 07:19:49;;;;;;;11.50;6.78;;;16.80;99.90;;;;;;5131154;27;20018;-75
2023/07/23 07:22:15;;;;;;;12.95;7.20;;;16.80;99.90;;;;;;5130226;27;20016;-75
2023/07/23 07:24:41;;;;;;;12.05;7.25;;;16.80;99.90;;;;;;5130541;27;20022;-75
2023/07/23 07:27:10;;;;;;;12.68;7.20;;;16.90;99.90;;;;;;5131347;27;20387;-75
2023/07/23 07:29:40;;;;;;;12.73;7.30;;;16.90;99.90;;;;;;5130358;27;20419;-75
2023/07/23 07:32:07;;;;;;;12.30;6.88;;;16.90;99.90;;;;;;5131619;27;20479;-75
2023/07/23 07:34:33;;;;;;;11.25;7.28;;;17.00;99.90;;;;;;5131698;27;20038;-75
2023/07/23 07:36:58;;;;;;;12.43;7.03;;;17.00;99.90;;;;;;5132487;27;20497;-75
2023/07/23 07:39:24;;;;;;;15.43;7.15;;;17.10;99.90;;;;;;5132466;27;20452;-75
2023/07/23 07:41:53;;;;;;;11.30;6.90;;;17.10;99.90;;;;;;5133257;27;20027;-75
2023/07/23 07:44:19;;;;;;;13.02;6.78;;;17.10;99.90;;;;;;5114703;27;20019;-76
2023/07/23 07:46:44;;;;;;;10.82;6.70;;;17.10;99.90;;;;;;5132872;27;20474;-75
2023/07/23 07:49:10;;;;;;;11.98;6.95;;;17.20;99.90;;;;;;5132498;27;20023;-75
2023/07/23 07:51:37;;;;;;;12.95;6.15;;;17.20;99.90;;;;;;5132193;27;20050;-75
2023/07/23 07:54:02;;;;;;;11.35;6.80;;;17.20;99.90;;;;;;5131693;28;20468;-74
2023/07/23 07:56:28;;;;;;;12.18;6.32;;;17.20;99.90;;;;;;5129792;28;20027;-75
2023/07/23 07:58:54;;;;;;;14.20;7.13;;;17.20;99.90;;;;;;5132408;28;20023;-75
2023/07/23 08:01:20;;;;;;;12.68;6.32;;;17.20;99.90;;;;;;5122206;28;20020;-75
2023/07/23 08:03:46;;;;;;;12.30;6.50;;;17.20;99.90;;;;;;5129571;28;20018;-75
2023/07/23 08:06:13;;;;;;;11.60;6.47;;;17.30;99.90;;;;;;5131700;28;20016;-75
2023/07/23 08:08:40;;;;;;;11.63;6.13;;;17.30;99.90;;;;;;5131457;28;20023;-75
2023/07/23 08:11:07;;;;;;;10.55;6.70;;;17.30;99.90;;;;;;5131880;28;20018;-75
2023/07/23 08:13:36;;;;;;;10.23;6.43;;;17.30;99.90;;;;;;5125469;28;20604;-75
2023/07/23 08:16:02;;;;;;;12.10;6.80;;;17.40;99.90;;;;;;5131291;28;20011;-75
2023/07/23 08:18:28;;;;;;;13.57;6.72;;;17.40;99.90;;;;;;5131274;28;20030;-75
2023/07/23 08:20:57;;;;;;;11.98;6.95;;;17.40;99.90;;;;;;5121647;28;20015;-75
2023/07/23 08:23:26;;;;;;;12.73;6.22;;;17.40;99.90;;;;;;5131077;28;20058;-75
2023/07/23 08:25:57;;;;;;;11.15;7.25;;;17.40;99.90;;;;;;5130618;28;20106;-76
2023/07/23 08:28:28;;;;;;;11.77;6.80;;;17.40;99.90;;;;;;5117903;28;20031;-76
2023/07/23 08:30:58;;;;;;;14.15;6.97;;;17.40;99.90;;;;;;5130643;28;20038;-75
2023/07/23 08:33:28;;;;;;;12.60;7.05;;;17.40;99.90;;;;;;5130927;28;20046;-75
2023/07/23 08:35:55;;;;;;;9.75;6.57;;;17.50;99.90;;;;;;5130164;28;20019;-75
2023/07/23 08:38:23;;;;;;;16.60;6.97;;;17.50;99.90;;;;;;5130643;28;20041;-75
2023/07/23 08:40:56;;;;;;;11.65;7.25;;;17.50;99.90;;;;;;5130442;28;20552;-75
2023/07/23 08:43:43;;;;;;;11.57;6.47;;;17.50;99.90;;;;;;5130502;28;20058;-75
2023/07/23 08:46:22;;;;;;;12.35;7.10;;;17.50;99.90;;;;;;5130448;28;20107;-75
2023/07/23 08:48:54;;;;;;;12.65;6.80;;;17.50;99.90;;;;;;5129322;28;20514;-75
2023/07/23 08:51:20;;;;;;;12.53;7.30;;;17.50;99.90;;;;;;5089751;28;1139149;-75
2023/07/23 08:53:48;;;;;;;10.25;7.15;;;17.60;99.90;;;;;;5131058;28;20023;-75
2023/07/23 08:56:15;;;;;;;15.85;7.63;;;17.60;99.90;;;;;;5130399;28;20044;-76
2023/07/23 08:58:43;;;;;;;12.23;6.97;;;17.60;99.90;;;;;;5131052;28;20472;-76
2023/07/23 09:01:11;;;;;;;12.43;7.10;;;17.60;99.90;;;;;;5122379;28;20055;-75
2023/07/23 09:03:36;;;;;;;11.68;6.90;;;17.60;99.90;;;;;;5127654;28;20414;-75
2023/07/23 09:06:03;;;;;;;10.95;6.82;;;17.70;99.90;;;;;;5131119;28;20019;-75
2023/07/23 09:08:29;;;;;;;13.23;7.13;;;17.70;99.90;;;;;;5131123;28;20011;-74
2023/07/23 09:10:55;;;;;;;9.65;6.43;;;17.70;99.90;;;;;;5130974;28;20106;-74
2023/07/23 09:13:20;;;;;;;14.85;6.53;;;17.70;99.90;;;;;;5130745;28;20020;-75
2023/07/23 09:15:55;;;;;;;11.75;6.50;;;17.70;99.90;;;;;;5131278;28;20044;-75
2023/07/23 09:18:21;;;;;;;9.82;5.68;;;17.60;99.90;;;;;;5131026;28;20072;-75
2023/07/23 09:20:50;;;;;;;8.45;5.15;;;17.60;99.90;;;;;;5128951;28;20027;-74
2023/07/23 09:23:16;;;;;;;10.35;5.40;;;17.50;99.90;;;;;;5129049;28;20079;-74
2023/07/23 09:25:44;;;;;;;8.07;6.03;;;17.50;99.90;;;;;;5130728;28;20475;-74
2023/07/23 09:28:28;;;;;;;9.82;5.95;;;17.40;99.90;;;;;;5130526;28;20052;-74
2023/07/23 09:30:58;;;;;;;10.90;6.28;;;17.40;99.90;;;;;;5130606;28;20398;-74
2023/07/23 09:33:35;;;;;;;11.82;7.63;;;17.40;99.90;;;;;;5130987;28;20388;-75
2023/07/23 09:36:02;;;;;;;11.30;7.30;;;17.30;99.90;;;;;;5130082;28;20464;-74
2023/07/23 09:38:28;;;;;;;11.38;6.95;;;17.30;99.90;;;;;;5130943;27;20507;-75
2023/07/23 09:40:55;;;;;;;11.15;7.10;;;17.30;99.90;;;;;;5105676;27;20367;-75
2023/07/23 09:43:24;;;;;;;10.52;7.45;;;17.30;99.90;;;;;;5134001;27;20051;-75
2023/07/23 09:45:52;;;;;;;12.68;7.68;;;17.30;99.90;;;;;;5115546;27;20015;-75
2023/07/23 09:48:18;;;;;;;13.63;7.90;;;17.30;99.90;;;;;;5133739;27;20487;-75
2023/07/23 09:50:45;;;;;;;14.75;7.90;;;17.40;99.90;;;;;;5134358;27;20379;-75
2023/07/23 09:53:13;;;;;;;12.43;7.47;;;17.40;99.90;;;;;;5010145;28;20060;-74
2023/07/23 09:55:40;;;;;;;12.40;7.20;;;17.50;99.90;;;;;;5009981;28;20463;-74
2023/07/23 09:58:06;;;;;;;9.90;7.05;;;17.50;99.90;;;;;;5077126;28;20041;-75
2023/07/23 10:00:33;;;;;;;10.73;7.03;;;17.60;99.90;;;;;;5009889;28;20044;-74
2023/07/23 10:03:00;;;;;;;13.75;6.97;;;17.70;99.90;;;;;;5009705;28;20413;-75
2023/07/23 10:05:27;;;;;;;11.00;7.15;;;17.70;99.90;;;;;;5010038;28;20560;-74
2023/07/23 10:07:53;;;;;;;12.63;7.30;;;17.80;99.90;;;;;;5009578;28;20375;-75
2023/07/23 10:10:20;;;;;;;12.35;7.65;;;17.80;99.90;;;;;;5009801;28;20041;-75
2023/07/23 10:12:47;;;;;;;10.88;7.10;;;17.90;99.90;;;;;;5006588;28;20033;-75
2023/07/23 10:15:13;;;;;;;12.38;7.20;;;17.90;99.90;;;;;;5009654;28;20022;-74
2023/07/23 10:18:00;;;;;;;13.75;7.22;;;17.90;99.90;;;;;;5009563;28;20026;-74
2023/07/23 10:20:28;;;;;;;12.10;7.40;;;18.00;99.90;;;;;;5009843;28;20061;-75
2023/07/23 10:22:54;;;;;;;12.77;7.53;;;18.00;99.90;;;;;;5009629;28;20119;-74
2023/07/23 10:25:34;;;;;;;13.10;7.15;;;18.00;99.90;;;;;;5009771;28;20022;-74
2023/07/23 10:28:06;;;;;;;11.25;7.38;;;18.10;99.90;;;;;;5010017;28;20033;-74
2023/07/23 10:30:34;;;;;;;10.35;7.03;;;18.10;99.90;;;;;;5009430;28;20033;-74
2023/07/23 10:33:11;;;;;;;12.10;7.47;;;18.10;99.90;;;;;;5009404;28;20066;-75
2023/07/23 10:35:55;;;;;;;11.25;7.43;;;18.10;99.90;;;;;;5009305;28;20025;-75
2023/07/23 10:38:38;;;;;;;12.25;7.65;;;18.20;99.90;;;;;;5004585;28;20053;-75
2023/07/23 10:41:05;;;;;;;12.70;7.47;;;18.20;99.90;;;;;;5011148;28;20029;-75
2023/07/23 10:43:42;;;;;;;11.82;7.07;;;18.20;99.90;;;;;;5011067;28;20109;-75
2023/07/23 10:46:21;;;;;;;15.00;7.70;;;18.30;99.90;;;;;;5009391;28;20037;-75
2023/07/23 10:48:49;;;;;;;13.48;7.07;;;18.40;99.90;;;;;;5008271;28;20070;-75
2023/07/23 10:51:20;;;;;;;13.18;8.15;;;18.70;99.90;;;;;;5034324;27;20043;-75
2023/07/23 10:54:07;;;;;;;11.15;7.40;;;18.90;99.90;;;;;;5113642;27;20061;-75
2023/07/23 10:56:38;;;;;;;12.18;7.47;;;19.00;99.90;;;;;;5133737;27;20023;-75
2023/07/23 10:59:14;;;;;;;10.07;6.90;;;19.20;99.90;;;;;;5132604;27;20011;-75
2023/07/23 11:01:42;;;;;;;11.60;7.32;;;19.20;99.90;;;;;;5133344;27;20043;-75
2023/07/23 11:04:16;;;;;;;10.43;6.78;;;19.30;99.90;;;;;;5129705;27;20022;-75
2023/07/23 11:06:54;;;;;;;13.13;6.18;;;19.40;99.90;;;;;;5123862;27;20011;-76
2023/07/23 11:09:27;;;;;;;11.73;6.10;;;19.60;99.90;;;;;;5132747;27;20378;-76
2023/07/23 11:11:53;;;;;;;10.48;6.72;;;19.60;99.90;;;;;;5133135;27;20627;-76
2023/07/23 11:14:26;;;;;;;10.90;6.45;;;19.70;99.90;;;;;;5107906;27;20058;-75
2023/07/23 11:16:54;;;;;;;11.30;6.30;;;19.70;99.90;;;;;;5124405;27;20023;-76
2023/07/23 11:19:23;;;;;;;9.85;6.07;;;19.80;99.90;;;;;;5132736;27;20632;-76
2023/07/23 11:21:56;;;;;;;9.63;6.30;;;19.90;99.90;;;;;;5133387;27;20023;-76
2023/07/23 11:24:25;;;;;;;7.65;5.18;;;20.00;99.90;;;;;;5133735;27;20015;-76
2023/07/23 11:26:52;;;;;;;9.48;5.22;;;20.10;99.90;;;;;;5133440;27;20022;-76
2023/07/23 11:29:18;;;;;;;9.77;5.10;;;20.10;99.90;;;;;;5117260;27;20027;-76
2023/07/23 11:31:45;;;;;;;6.88;4.55;;;20.20;99.90;;;;;;5123504;27;20516;-76
2023/07/23 11:34:12;;;;;;;10.85;4.70;;;20.20;99.90;;;;;;5133144;27;20076;-76
2023/07/23 11:36:38;;;;;;;10.00;5.43;;;20.20;99.90;;;;;;5133555;27;20507;-76
2023/07/23 11:39:05;;;;;;;10.23;6.07;;;20.20;99.90;;;;;;5111157;28;20024;-76
2023/07/23 11:41:39;;;;;;;8.73;5.47;;;20.10;99.90;;;;;;5132487;27;20042;-75
2023/07/23 11:44:05;;;;;;;9.88;6.20;;;20.10;99.90;;;;;;5133615;27;20019;-75
2023/07/23 11:46:39;;;;;;;11.80;6.20;;;20.00;99.90;;;;;;5115092;27;20023;-75
2023/07/23 11:49:06;;;;;;;9.10;6.00;;;20.00;99.90;;;;;;5133278;27;20020;-75
2023/07/23 11:51:33;;;;;;;9.30;6.90;;;20.00;99.90;;;;;;5131062;27;20069;-75
2023/07/23 11:54:00;;;;;;;10.93;6.85;;;20.00;99.90;;;;;;5133632;27;20044;-75
2023/07/23 11:56:27;;;;;;;12.68;7.55;;;20.10;99.90;;;;;;5133629;27;20110;-75
2023/07/23 11:58:52;;;;;;;14.98;7.22;;;20.20;99.90;;;;;;5114957;27;20487;-75
2023/07/23 12:01:18;;;;;;;11.32;7.57;;;20.20;99.90;;;;;;5133374;27;20023;-75
2023/07/23 12:03:45;;;;;;;8.27;6.10;;;20.20;99.90;;;;;;5133285;27;20019;-75
2023/07/23 12:06:15;;;;;;;11.43;6.35;;;20.30;99.90;;;;;;5133647;27;20031;-75
2023/07/23 12:08:45;;;;;;;11.48;6.00;;;20.50;99.90;;;;;;5133312;27;20392;-75
2023/07/23 12:11:12;;;;;;;11.27;5.70;;;20.70;99.90;;;;;;5133050;27;20052;-76
2023/07/23 12:13:49;;;;;;;8.40;3.90;;;21.00;99.90;;;;;;5127168;27;20412;-75
2023/07/23 12:16:34;;;;;;;9.60;4.15;;;21.20;99.90;;;;;;5133022;27;20058;-74
2023/07/23 12:19:02;;;;;;;11.35;3.92;;;21.40;99.90;;;;;;5133101;27;20029;-74
2023/07/23 12:21:28;;;;;;;9.70;3.50;;;21.60;99.90;;;;;;5132946;27;20050;-76
2023/07/23 12:23:53;;;;;;;7.57;3.60;;;21.80;99.90;;;;;;5132906;27;20019;-75
2023/07/23 12:26:19;;;;;;;5.40;2.80;;;21.80;99.90;;;;;;5131864;28;20376;-75
2023/07/23 12:28:44;;;;;;;9.48;3.08;;;21.80;99.90;;;;;;5131222;28;20027;-75
2023/07/23 12:31:10;;;;;;;7.85;2.70;;;21.90;99.90;;;;;;5131046;28;20141;-74
2023/07/23 12:33:36;;;;;;;10.55;2.38;;;22.00;99.90;;;;;;5131318;28;20027;-75
2023/07/23 12:36:03;;;;;;;5.68;2.42;;;22.00;99.90;;;;;;5131147;28;20015;-75